Time;durP1;ratioP1;P1;durP2;ratioP2;P2;SDS_P1;SDS_P2;PMS_P1;PMS_P2;Temp;Humidity;BMP_temperature;BMP_pressure;BME280_temperature;BME280_humidity;BME280_pressure;Samples;Min_cycle;Max_cycle;Signal;HPM_P1;HPM_P2
2022/06/18 00:09:01;;;;;;;7.28;3.78;;;14.10;99.90;;;;;;21022447;28;20024;-58
2022/06/18 00:19:04;;;;;;;4.50;3.40;;;14.10;99.90;;;;;;21055917;28;20085;-57
2022/06/18 00:29:15;;;;;;;6.03;3.55;;;13.90;99.90;;;;;;21054934;28;20495;-52
2022/06/18 00:39:18;;;;;;;4.82;2.95;;;13.80;99.90;;;;;;21054341;28;20040;-58
2022/06/18 00:49:35;;;;;;;6.85;3.53;;;13.80;99.90;;;;;;21054066;28;20386;-58
2022/06/18 00:59:41;;;;;;;12.32;6.13;;;13.90;99.90;;;;;;21053115;28;20077;-59
2022/06/18 01:09:48;;;;;;;7.75;6.53;;;13.90;99.90;;;;;;21052250;28;20435;-52
2022/06/18 01:19:51;;;;;;;8.70;5.78;;;14.10;99.90;;;;;;21035073;28;20552;-51
2022/06/18 01:29:54;;;;;;;11.07;7.13;;;14.10;99.90;;;;;;21033665;28;20093;-52
2022/06/18 01:40:01;;;;;;;6.75;5.47;;;14.10;99.90;;;;;;20974721;28;20045;-58
2022/06/18 01:50:26;;;;;;;8.93;6.47;;;14.00;99.90;;;;;;20983499;28;20040;-58
2022/06/18 02:00:31;;;;;;;6.90;5.25;;;13.90;99.90;;;;;;20983294;28;20157;-58
2022/06/18 02:11:03;;;;;;;8.90;6.43;;;13.90;99.90;;;;;;21010789;28;20120;-58
2022/06/18 02:21:10;;;;;;;10.45;5.85;;;13.70;99.90;;;;;;21032740;28;20032;-59
2022/06/18 02:31:21;;;;;;;8.23;5.88;;;13.70;99.90;;;;;;20964987;28;20053;-48
2022/06/18 02:41:26;;;;;;;6.07;4.90;;;13.60;99.90;;;;;;20968962;28;20529;-52
2022/06/18 02:51:30;;;;;;;7.85;5.82;;;13.80;99.90;;;;;;20997418;28;20078;-58
2022/06/18 03:01:34;;;;;;;9.15;5.60;;;13.80;99.90;;;;;;20919883;28;20052;-50
2022/06/18 03:22:16;;;;;;;8.63;5.13;;;13.90;99.90;;;;;;20916041;28;20445;-58
2022/06/18 03:32:19;;;;;;;7.53;5.95;;;14.00;99.90;;;;;;20993592;28;20560;-58
2022/06/18 03:42:22;;;;;;;7.30;4.97;;;14.00;99.90;;;;;;20992431;28;20441;-58
2022/06/18 03:52:26;;;;;;;7.13;5.43;;;14.00;99.90;;;;;;20991320;28;20032;-58
2022/06/18 04:02:29;;;;;;;7.82;5.30;;;14.00;99.90;;;;;;20990955;28;20395;-58
2022/06/18 04:12:34;;;;;;;8.52;5.10;;;14.10;99.90;;;;;;20973596;28;20037;-58
2022/06/18 04:22:55;;;;;;;7.45;4.75;;;14.30;99.90;;;;;;20989194;28;20053;-52
2022/06/18 04:33:00;;;;;;;4.55;4.13;;;14.50;99.90;;;;;;20988214;28;20040;-58
2022/06/18 04:43:07;;;;;;;8.73;4.70;;;14.60;99.90;;;;;;20987026;28;20054;-52
2022/06/18 04:53:16;;;;;;;7.53;4.53;;;14.70;99.90;;;;;;20970295;28;20032;-59
2022/06/18 05:03:23;;;;;;;4.45;3.60;;;14.90;99.90;;;;;;20969336;28;20037;-48
2022/06/18 05:13:37;;;;;;;6.32;3.40;;;14.90;99.90;;;;;;20985677;28;20078;-58
2022/06/18 05:24:00;;;;;;;5.57;3.63;;;14.80;99.90;;;;;;21006180;28;20044;-59
2022/06/18 05:34:03;;;;;;;3.53;2.80;;;15.00;99.90;;;;;;21024856;28;20032;-59
2022/06/18 05:44:07;;;;;;;4.57;2.83;;;15.20;99.90;;;;;;20983800;28;20041;-59
2022/06/18 05:54:09;;;;;;;5.20;2.83;;;15.30;99.90;;;;;;20983141;28;20037;-58
2022/06/18 06:04:36;;;;;;;3.10;2.58;;;15.50;99.90;;;;;;20975000;28;20109;-58
2022/06/18 06:14:41;;;;;;;2.72;1.98;;;15.80;99.90;;;;;;21050050;28;20657;-58
2022/06/18 06:24:44;;;;;;;4.57;2.22;;;19.40;99.90;;;;;;21032140;28;20048;-56
2022/06/18 06:34:47;;;;;;;3.38;2.05;;;22.60;99.40;;;;;;21064314;28;20040;-59
2022/06/18 06:44:49;;;;;;;7.13;2.58;;;24.60;93.90;;;;;;21047264;28;20093;-57
2022/06/18 06:57:21;;;;;;;2.00;1.80;;;26.40;90.80;;;;;;21042113;28;20058;-57
2022/06/18 07:05:15;;;;;;;2.95;2.60;;;28.80;83.60;;;;;;20995788;28;20075;-57
2022/06/18 07:15:20;;;;;;;5.13;3.35;;;28.90;83.90;;;;;;20995255;28;20036;-61
2022/06/18 07:25:22;;;;;;;5.27;3.20;;;29.50;79.70;;;;;;20993290;28;20549;-60
2022/06/18 07:35:29;;;;;;;4.00;3.67;;;29.70;79.40;;;;;;21013157;28;20085;-61
2022/06/18 07:45:31;;;;;;;4.05;3.65;;;29.80;78.90;;;;;;21059156;28;20394;-61
2022/06/18 07:55:34;;;;;;;4.05;3.72;;;29.30;79.00;;;;;;21058374;28;20090;-60
2022/06/18 08:05:38;;;;;;;4.93;2.88;;;28.70;77.80;;;;;;21054623;28;20032;-61
2022/06/18 08:15:42;;;;;;;3.40;3.10;;;28.60;83.30;;;;;;20989465;28;20037;-62
2022/06/18 08:25:45;;;;;;;4.20;3.80;;;28.60;83.20;;;;;;20988319;28;20356;-58
2022/06/18 08:35:49;;;;;;;4.63;4.18;;;28.70;81.60;;;;;;20988117;28;20537;-62
2022/06/18 08:46:06;;;;;;;4.00;3.70;;;28.40;79.70;;;;;;20988334;28;20028;-62
2022/06/18 08:56:25;;;;;;;4.07;3.15;;;28.20;82.30;;;;;;21018188;28;20129;-62
2022/06/18 09:06:55;;;;;;;3.70;3.40;;;28.10;85.60;;;;;;21051849;28;20040;-62
2022/06/18 09:17:05;;;;;;;4.57;3.45;;;28.10;83.70;;;;;;21052666;28;20432;-62
2022/06/18 09:27:15;;;;;;;6.68;3.78;;;27.90;85.10;;;;;;21051445;28;20101;-63
2022/06/18 09:37:38;;;;;;;4.63;4.03;;;27.80;85.10;;;;;;21014218;28;20090;-58
2022/06/18 09:47:47;;;;;;;5.22;3.60;;;28.00;87.30;;;;;;20983130;28;20395;-57
2022/06/18 09:57:55;;;;;;;8.80;4.43;;;28.00;87.10;;;;;;20982541;28;20120;-62
2022/06/18 10:07:59;;;;;;;5.88;4.22;;;28.00;86.60;;;;;;21004598;28;20070;-62
2022/06/18 10:18:40;;;;;;;4.75;3.88;;;27.80;85.70;;;;;;21048353;28;20085;-63
2022/06/18 10:29:17;;;;;;;4.63;3.88;;;27.80;89.20;;;;;;21048086;28;20087;-63
2022/06/18 10:39:45;;;;;;;6.15;3.25;;;27.80;86.80;;;;;;21048109;28;20097;-63
2022/06/18 10:50:01;;;;;;;5.55;3.90;;;27.80;89.70;;;;;;21047917;28;20563;-63
2022/06/18 11:00:23;;;;;;;5.95;3.72;;;28.10;86.00;;;;;;20983690;28;20028;-63
2022/06/18 11:10:43;;;;;;;6.35;4.35;;;28.10;85.70;;;;;;21043297;28;20065;-64
2022/06/18 11:21:01;;;;;;;6.30;3.60;;;28.10;84.70;;;;;;21060678;28;20036;-63
2022/06/18 11:31:04;;;;;;;5.70;3.35;;;27.80;86.00;;;;;;20993071;28;20082;-58
2022/06/18 11:41:23;;;;;;;4.50;3.65;;;28.20;90.00;;;;;;20924265;28;20033;-62
2022/06/18 11:51:46;;;;;;;5.07;4.53;;;28.40;85.70;;;;;;20908733;28;20041;-57
2022/06/18 12:02:18;;;;;;;8.27;3.70;;;28.50;81.80;;;;;;20908199;28;20081;-63
2022/06/18 12:12:33;;;;;;;7.25;5.13;;;28.40;85.10;;;;;;20962207;28;20098;-62
2022/06/18 12:22:48;;;;;;;4.93;3.90;;;28.00;79.40;;;;;;20998002;28;20066;-63
2022/06/18 12:33:00;;;;;;;5.30;4.20;;;27.90;84.90;;;;;;21055025;28;20507;-63
2022/06/18 12:43:21;;;;;;;4.65;4.20;;;28.20;85.40;;;;;;21054712;28;20069;-63
2022/06/18 12:53:54;;;;;;;4.47;4.07;;;28.10;82.20;;;;;;21046321;28;20548;-63
2022/06/18 13:04:00;;;;;;;10.18;4.40;;;28.00;82.20;;;;;;20985794;28;20060;-59
2022/06/18 13:14:37;;;;;;;6.10;4.72;;;28.60;84.20;;;;;;20985289;28;20075;-62
2022/06/18 13:35:16;;;;;;;6.38;4.97;;;28.40;84.00;;;;;;21002048;28;20117;-63
2022/06/18 13:45:47;;;;;;;7.28;5.35;;;28.70;85.40;;;;;;21050430;28;20067;-58
2022/06/18 13:55:50;;;;;;;6.50;5.30;;;28.80;84.20;;;;;;21049985;28;20044;-63
2022/06/18 14:06:04;;;;;;;6.72;5.60;;;28.70;83.70;;;;;;21044387;28;20398;-63
2022/06/18 14:16:06;;;;;;;5.90;5.30;;;29.30;81.50;;;;;;20982441;28;20082;-64
2022/06/18 14:26:20;;;;;;;7.18;6.57;;;29.50;83.90;;;;;;20981448;28;20045;-63
2022/06/18 14:36:29;;;;;;;10.35;6.97;;;29.80;81.10;;;;;;20983772;28;20040;-64
2022/06/18 14:46:58;;;;;;;7.28;6.57;;;30.20;79.70;;;;;;20996884;28;20032;-64
2022/06/18 14:57:20;;;;;;;7.40;6.63;;;;;;;;;;21033897;28;20043;-64
2022/06/18 15:07:29;;;;;;;10.85;7.00;;;30.70;76.20;;;;;;21061688;28;20031;-63
2022/06/18 15:17:43;;;;;;;13.77;6.70;;;30.70;77.50;;;;;;21061415;28;20032;-63
2022/06/18 15:27:48;;;;;;;8.93;6.90;;;30.60;79.30;;;;;;21060446;28;20044;-63
2022/06/18 15:38:12;;;;;;;7.85;7.05;;;30.50;78.10;;;;;;21018728;28;20391;-62
2022/06/18 15:48:46;;;;;;;8.40;6.45;;;30.30;78.00;;;;;;20991106;28;20040;-57
2022/06/18 15:58:49;;;;;;;7.88;7.15;;;30.00;78.40;;;;;;20983917;28;20045;-62
2022/06/18 16:09:02;;;;;;;9.05;6.20;;;29.50;78.00;;;;;;21020100;28;20032;-62
2022/06/18 16:19:05;;;;;;;10.38;5.28;;;26.90;82.10;;;;;;21057769;28;20031;-61
2022/06/18 16:29:15;;;;;;;10.77;5.38;;;25.20;87.80;;;;;;21055488;28;20048;-61
2022/06/18 16:39:17;;;;;;;8.65;5.10;;;24.40;89.20;;;;;;21054475;28;20490;-60
2022/06/18 16:49:23;;;;;;;9.07;5.60;;;24.40;90.70;;;;;;21054035;28;20490;-53
2022/06/18 16:59:29;;;;;;;10.23;5.60;;;23.50;91.20;;;;;;20994757;28;20387;-60
2022/06/18 17:09:31;;;;;;;8.50;6.05;;;22.10;93.30;;;;;;20985761;28;20391;-59
2022/06/18 17:19:34;;;;;;;8.55;7.05;;;21.00;95.20;;;;;;20984707;28;20041;-60
2022/06/18 17:40:00;;;;;;;10.18;6.22;;;19.60;98.00;;;;;;21042960;28;20089;-59
2022/06/18 17:50:03;;;;;;;9.02;6.20;;;19.00;99.40;;;;;;21049918;28;20096;-59
2022/06/18 18:00:06;;;;;;;7.47;6.38;;;18.60;99.90;;;;;;21049681;28;20082;-59
2022/06/18 18:10:13;;;;;;;10.20;6.07;;;18.20;99.90;;;;;;20891161;28;20893;-59
2022/06/18 18:20:21;;;;;;;8.93;6.93;;;17.90;99.90;;;;;;20890811;28;20083;-58
2022/06/18 18:30:25;;;;;;;9.03;6.23;;;17.50;99.90;;;;;;20890271;28;20496;-58
2022/06/18 18:40:28;;;;;;;12.98;8.15;;;17.20;99.90;;;;;;20889489;28;20072;-58
2022/06/18 18:50:30;;;;;;;9.73;7.22;;;16.90;99.90;;;;;;20937419;28;20036;-58
2022/06/18 19:00:36;;;;;;;13.85;6.65;;;16.60;99.90;;;;;;21062747;28;20062;-58
2022/06/18 19:10:40;;;;;;;8.40;6.47;;;16.40;99.90;;;;;;21062038;28;20040;-58
2022/06/18 19:20:44;;;;;;;10.60;7.35;;;16.10;99.90;;;;;;21060857;28;20044;-58
2022/06/18 19:30:47;;;;;;;15.05;7.43;;;16.00;99.90;;;;;;20993555;28;20045;-58
2022/06/18 19:40:51;;;;;;;10.65;6.70;;;16.00;99.90;;;;;;20927410;28;20152;-58
2022/06/18 19:50:54;;;;;;;13.23;7.40;;;16.10;99.90;;;;;;20908851;28;20095;-58
2022/06/18 20:00:57;;;;;;;11.45;6.65;;;16.00;99.90;;;;;;20910321;28;20033;-58
2022/06/18 20:11:00;;;;;;;12.52;7.57;;;15.70;99.90;;;;;;20954486;28;20572;-58
2022/06/18 20:21:04;;;;;;;10.13;6.57;;;15.60;99.90;;;;;;20990034;28;20518;-58
2022/06/18 20:31:08;;;;;;;8.73;7.25;;;15.40;99.90;;;;;;20989646;28;20059;-50
2022/06/18 20:41:12;;;;;;;14.73;8.73;;;15.30;99.90;;;;;;20987560;28;20037;-50
2022/06/18 20:51:19;;;;;;;16.95;7.38;;;15.10;99.90;;;;;;20987107;28;20059;-57
2022/06/18 21:01:23;;;;;;;11.40;7.90;;;15.00;99.90;;;;;;20912225;28;20037;-53
2022/06/18 21:11:26;;;;;;;11.57;8.60;;;14.80;99.90;;;;;;20903228;28;20041;-57
2022/06/18 21:21:30;;;;;;;12.63;8.10;;;14.60;99.90;;;;;;20903834;28;20384;-57
2022/06/18 21:41:54;;;;;;;9.38;8.27;;;14.40;99.90;;;;;;20975409;28;20040;-58
2022/06/18 21:52:01;;;;;;;12.43;7.85;;;14.20;99.90;;;;;;20982998;28;20037;-58
2022/06/18 22:02:04;;;;;;;11.00;9.48;;;14.20;99.90;;;;;;20983088;28;20036;-52
2022/06/18 22:22:27;;;;;;;14.50;8.73;;;13.90;99.90;;;;;;20907596;28;20048;-57
2022/06/18 22:32:30;;;;;;;12.55;8.98;;;13.90;99.90;;;;;;20981848;28;20469;-58
2022/06/18 22:42:33;;;;;;;11.80;9.02;;;13.80;99.90;;;;;;20981980;28;20032;-57
2022/06/18 22:52:40;;;;;;;11.98;8.50;;;13.70;99.90;;;;;;20983423;28;20044;-58
2022/06/18 23:02:43;;;;;;;10.50;8.20;;;13.80;99.90;;;;;;21057440;28;20089;-57
2022/06/18 23:12:45;;;;;;;12.43;7.03;;;13.90;99.90;;;;;;21062361;28;20368;-57
2022/06/18 23:22:48;;;;;;;11.77;7.57;;;13.90;99.90;;;;;;21061240;28;20040;-57
2022/06/18 23:32:56;;;;;;;12.05;7.85;;;14.00;99.90;;;;;;21061506;28;20036;-50
2022/06/18 23:42:59;;;;;;;11.85;7.70;;;13.90;99.90;;;;;;20959824;28;20410;-49
2022/06/18 23:53:05;;;;;;;9.40;7.75;;;13.90;99.90;;;;;;20992177;28;20040;-57
